createdAt,value
2023-12-09T00:02:20.928Z,95677.81
2023-12-09T00:04:49.193Z,95677.39
2023-12-09T00:07:17.433Z,95678.91
2023-12-09T00:09:45.585Z,95679.02
2023-12-09T00:12:13.972Z,95681.82
2023-12-09T00:14:42.431Z,95683.98
2023-12-09T00:17:10.683Z,95684.77
2023-12-09T00:19:38.895Z,95685.38
2023-12-09T00:22:07.220Z,95690.89
2023-12-09T00:24:35.522Z,95692.63
2023-12-09T00:27:04.417Z,95698.50
2023-12-09T00:29:32.695Z,95697.17
2023-12-09T00:32:00.977Z,95697.39
2023-12-09T00:34:29.137Z,95697.03
2023-12-09T00:36:57.376Z,95697.52
2023-12-09T00:39:25.700Z,95697.14
2023-12-09T00:41:53.985Z,95689.52
2023-12-09T00:44:22.397Z,95690.17
2023-12-09T00:46:50.656Z,95695.61
2023-12-09T00:49:18.976Z,95690.16
2023-12-09T00:51:47.235Z,95696.48
2023-12-09T00:54:15.672Z,95697.27
2023-12-09T00:56:43.824Z,95698.86
2023-12-09T00:59:12.142Z,95697.27
2023-12-09T01:01:40.386Z,95695.81
2023-12-09T01:04:08.922Z,95689.37
2023-12-09T01:06:37.412Z,95691.42
2023-12-09T01:09:05.724Z,95687.58
2023-12-09T01:11:34.011Z,95681.42
2023-12-09T01:14:02.342Z,95683.69
2023-12-09T01:16:30.665Z,95684.89
2023-12-09T01:18:58.981Z,95682.55
2023-12-09T01:21:27.436Z,95691.10
2023-12-09T01:23:55.695Z,95686.20
2023-12-09T01:26:24.044Z,95683.45
2023-12-09T01:28:52.275Z,95682.89
2023-12-09T01:31:20.537Z,95680.14
2023-12-09T01:33:48.750Z,95672.64
2023-12-09T01:36:17.169Z,95669.98
2023-12-09T01:38:45.315Z,95670.65
2023-12-09T01:41:13.461Z,95673.21
2023-12-09T01:43:42.117Z,95672.29
2023-12-09T01:46:12.198Z,95673.98
2023-12-09T01:48:41.552Z,95667.90
2023-12-09T01:51:10.432Z,95664.99
2023-12-09T01:53:38.870Z,95662.91
2023-12-09T01:56:11.578Z,95660.15
2023-12-09T01:58:39.789Z,95655.59
2023-12-09T02:01:08.417Z,95651.88
2023-12-09T02:03:37.604Z,95648.48
2023-12-09T02:06:06.165Z,95647.52
2023-12-09T02:08:34.714Z,95642.62
2023-12-09T02:11:35.362Z,95641.21
2023-12-09T02:14:08.678Z,95640.98
2023-12-09T02:16:47.321Z,95637.73
2023-12-09T02:19:16.063Z,95641.13
2023-12-09T02:22:07.078Z,95642.75
2023-12-09T02:24:35.667Z,95639.33
2023-12-09T02:27:13.827Z,95641.46
2023-12-09T02:30:21.489Z,95641.83
2023-12-09T02:32:51.764Z,95637.35
2023-12-09T02:35:21.394Z,95635.02
2023-12-09T02:37:51.047Z,95632.93
2023-12-09T02:40:20.773Z,95634.57
2023-12-09T02:42:50.568Z,95636.91
2023-12-09T02:45:22.482Z,95636.60
2023-12-09T02:47:50.781Z,95633.19
2023-12-09T02:50:19.320Z,95635.81
2023-12-09T02:52:47.591Z,95629.16
2023-12-09T02:55:16.954Z,95629.99
2023-12-09T02:57:45.180Z,95628.10
2023-12-09T03:00:13.974Z,95625.53
2023-12-09T03:02:43.101Z,95627.34
2023-12-09T03:05:11.470Z,95630.99
2023-12-09T03:07:39.752Z,95632.43
2023-12-09T03:10:08.348Z,95633.03
2023-12-09T03:12:37.338Z,95630.28
2023-12-09T03:15:07.052Z,95634.64
2023-12-09T03:17:36.285Z,95633.85
2023-12-09T03:20:08.378Z,95630.50
2023-12-09T03:22:36.876Z,95630.77
2023-12-09T03:25:05.660Z,95634.94
2023-12-09T03:27:34.098Z,95639.56
2023-12-09T03:30:02.475Z,95640.64
2023-12-09T03:32:30.984Z,95637.91
2023-12-09T03:34:59.363Z,95641.35
2023-12-09T03:37:28.053Z,95640.13
2023-12-09T03:39:56.330Z,95646.90
2023-12-09T03:42:25.005Z,95648.26
2023-12-09T03:44:53.610Z,95648.66
2023-12-09T03:47:28.749Z,95647.79
2023-12-09T03:49:58.329Z,95651.10
2023-12-09T03:52:26.788Z,95650.89
2023-12-09T03:54:55.223Z,95649.38
2023-12-09T03:57:23.362Z,95646.59
2023-12-09T03:59:51.703Z,95644.85
2023-12-09T04:02:20.028Z,95643.96
2023-12-09T04:04:48.267Z,95644.35
2023-12-09T04:07:16.849Z,95645.61
2023-12-09T04:09:45.062Z,95644.55
2023-12-09T04:12:13.381Z,95645.64
2023-12-09T04:14:42.144Z,95644.55
2023-12-09T04:17:10.285Z,95648.01
2023-12-09T04:19:38.646Z,95646.14
2023-12-09T04:22:07.078Z,95655.33
2023-12-09T04:24:35.306Z,95654.34
2023-12-09T04:27:03.845Z,95654.52
2023-12-09T04:29:32.256Z,95657.17
2023-12-09T04:32:00.480Z,95655.78
2023-12-09T04:34:28.779Z,95661.91
2023-12-09T04:36:57.656Z,95664.58
2023-12-09T04:39:26.000Z,95666.95
2023-12-09T04:41:54.274Z,95665.80
2023-12-09T04:44:24.467Z,95670.77
2023-12-09T04:46:52.981Z,95670.58
2023-12-09T04:49:21.339Z,95676.24
2023-12-09T04:51:49.687Z,95676.40
2023-12-09T04:54:18.159Z,95674.70
2023-12-09T04:56:46.396Z,95674.81
2023-12-09T04:59:15.348Z,95675.80
2023-12-09T05:01:43.725Z,95678.28
2023-12-09T05:04:12.664Z,95685.42
2023-12-09T05:06:41.034Z,95684.48
2023-12-09T05:09:10.053Z,95685.88
2023-12-09T05:11:38.546Z,95677.20
2023-12-09T05:14:07.184Z,95675.30
2023-12-09T05:16:35.631Z,95675.34
2023-12-09T05:19:05.533Z,95675.16
2023-12-09T05:21:35.951Z,95675.73
2023-12-09T05:24:06.008Z,95675.23
2023-12-09T05:26:34.866Z,95676.46
2023-12-09T05:29:04.758Z,95679.62
2023-12-09T05:31:33.132Z,95682.73
2023-12-09T05:34:02.764Z,95684.30
2023-12-09T05:36:31.457Z,95682.50
2023-12-09T05:39:00.338Z,95679.52
2023-12-09T05:41:28.611Z,95682.36
2023-12-09T05:43:57.010Z,95681.34
2023-12-09T05:46:25.382Z,95682.77
2023-12-09T05:48:53.771Z,95684.90
2023-12-09T05:51:22.235Z,95682.40
2023-12-09T05:53:50.455Z,95682.80
2023-12-09T05:56:19.020Z,95688.03
2023-12-09T05:58:47.353Z,95689.56
2023-12-09T06:01:15.805Z,95690.61
2023-12-09T06:03:44.139Z,95684.50
2023-12-09T06:06:12.642Z,95683.29
2023-12-09T06:08:41.117Z,95683.59
2023-12-09T06:11:09.383Z,95683.02
2023-12-09T06:13:37.630Z,95684.17
2023-12-09T06:16:05.965Z,95683.44
2023-12-09T06:18:34.193Z,95686.06
2023-12-09T06:21:02.574Z,95687.73
2023-12-09T06:23:30.840Z,95690.66
2023-12-09T06:25:59.250Z,95689.02
2023-12-09T06:28:27.707Z,95686.54
2023-12-09T06:30:56.999Z,95687.79
2023-12-09T06:33:25.540Z,95688.92
2023-12-09T06:35:53.989Z,95688.73
2023-12-09T06:38:22.214Z,95685.24
2023-12-09T06:40:50.944Z,95685.58
2023-12-09T06:43:19.228Z,95691.39
2023-12-09T06:45:47.867Z,95695.02
2023-12-09T06:48:16.331Z,95697.21
2023-12-09T06:50:44.680Z,95694.84
2023-12-09T06:53:14.868Z,95696.03
2023-12-09T06:55:43.315Z,95695.77
2023-12-09T06:58:11.994Z,95694.06
2023-12-09T07:00:40.556Z,95695.17
2023-12-09T07:03:09.062Z,95691.47
2023-12-09T07:05:37.354Z,95687.77
2023-12-09T07:08:06.056Z,95688.73
2023-12-09T07:10:34.381Z,95687.33
2023-12-09T07:13:02.984Z,95685.26
2023-12-09T07:15:31.803Z,95685.13
2023-12-09T07:18:00.354Z,95689.45
2023-12-09T07:20:28.661Z,95693.47
2023-12-09T07:22:57.160Z,95699.19
2023-12-09T07:25:25.400Z,95698.69
2023-12-09T07:27:53.681Z,95694.63
2023-12-09T07:30:22.273Z,95697.36
2023-12-09T07:32:50.913Z,95696.73
2023-12-09T07:35:19.573Z,95697.95
2023-12-09T07:37:48.481Z,95692.00
2023-12-09T07:40:17.409Z,95697.48
2023-12-09T07:42:45.714Z,95694.98
2023-12-09T07:45:14.170Z,95695.70
2023-12-09T07:47:42.409Z,95698.17
2023-12-09T07:50:12.529Z,95703.02
2023-12-09T07:52:41.414Z,95701.52
2023-12-09T07:55:10.145Z,95700.73
2023-12-09T07:57:38.422Z,95701.12
2023-12-09T08:00:08.907Z,95703.64
2023-12-09T08:02:37.196Z,95704.49
2023-12-09T08:05:05.907Z,95702.58
2023-12-09T08:07:34.236Z,95700.20
2023-12-09T08:10:02.673Z,95698.34
2023-12-09T08:12:32.613Z,95698.11
2023-12-09T08:15:01.577Z,95695.91
2023-12-09T08:17:30.214Z,95696.92
2023-12-09T08:19:58.649Z,95697.17
2023-12-09T08:22:27.889Z,95699.09
2023-12-09T08:24:56.243Z,95698.67
2023-12-09T08:27:24.561Z,95700.98
2023-12-09T08:29:53.116Z,95700.43
2023-12-09T08:32:21.363Z,95696.29
2023-12-09T08:34:59.701Z,95697.94
2023-12-09T08:37:31.746Z,95695.65
2023-12-09T08:40:13.993Z,95696.13
2023-12-09T08:42:47.139Z,95692.06
2023-12-09T08:45:20.140Z,95687.58
2023-12-09T08:47:48.609Z,95685.13
2023-12-09T08:52:48.225Z,95684.33
2023-12-09T08:55:18.574Z,95681.80
2023-12-09T08:57:47.344Z,95680.75
2023-12-09T09:00:20.466Z,95680.35
2023-12-09T09:02:49.120Z,95678.19
2023-12-09T09:05:17.559Z,95676.05
2023-12-09T09:07:46.008Z,95677.27
2023-12-09T09:10:15.609Z,95673.60
2023-12-09T09:12:48.541Z,95670.05
2023-12-09T09:15:20.883Z,95669.90
2023-12-09T09:17:50.067Z,95665.54
2023-12-09T09:20:19.156Z,95662.23
2023-12-09T09:22:48.509Z,95657.01
2023-12-09T09:25:17.314Z,95659.14
2023-12-09T09:27:45.745Z,95653.57
2023-12-09T09:30:15.677Z,95647.07
2023-12-09T09:32:45.255Z,95641.83
2023-12-09T09:35:13.656Z,95636.09
2023-12-09T09:37:41.950Z,95632.73
2023-12-09T09:40:13.055Z,95631.34
2023-12-09T09:42:52.496Z,95629.08
2023-12-09T09:45:31.916Z,95629.71
2023-12-09T09:48:08.309Z,95629.73
2023-12-09T09:50:46.966Z,95624.30
2023-12-09T09:53:26.271Z,95619.64
2023-12-09T09:55:55.582Z,95620.58
2023-12-09T09:58:23.919Z,95614.27
2023-12-09T10:00:57.953Z,95610.58
2023-12-09T10:03:26.414Z,95594.95
2023-12-09T10:05:54.911Z,95585.73
2023-12-09T10:08:24.713Z,95582.23
2023-12-09T10:10:53.020Z,95584.23
2023-12-09T10:13:21.299Z,95579.00
2023-12-09T10:15:50.375Z,95569.89
2023-12-09T10:18:22.487Z,95567.21
2023-12-09T10:20:51.220Z,95562.05
2023-12-09T10:23:20.933Z,95559.30
2023-12-09T10:25:50.260Z,95555.20
2023-12-09T10:28:18.550Z,95547.45
2023-12-09T10:30:47.240Z,95545.39
2023-12-09T10:33:16.700Z,95540.80
2023-12-09T10:35:46.046Z,95542.89
2023-12-09T10:38:17.212Z,95534.80
2023-12-09T10:40:45.651Z,95536.85
2023-12-09T10:43:14.596Z,95533.83
2023-12-09T10:45:43.910Z,95528.75
2023-12-09T10:48:12.396Z,95526.81
2023-12-09T10:50:41.142Z,95524.77
2023-12-09T10:53:09.402Z,95520.09
2023-12-09T10:55:38.165Z,95513.59
2023-12-09T10:58:06.688Z,95512.11
2023-12-09T11:00:37.965Z,95506.95
2023-12-09T11:03:08.550Z,95508.66
2023-12-09T11:05:56.082Z,95503.23
2023-12-09T11:08:29.461Z,95499.10
2023-12-09T11:10:58.857Z,95494.33
2023-12-09T11:13:30.589Z,95484.61
2023-12-09T11:16:12.912Z,95480.73
2023-12-09T11:18:56.609Z,95480.22
2023-12-09T11:21:33.192Z,95479.40
2023-12-09T11:24:01.488Z,95477.10
2023-12-09T11:26:35.218Z,95477.77
2023-12-09T11:29:10.973Z,95474.28
2023-12-09T11:31:44.697Z,95467.66
2023-12-09T11:34:18.840Z,95468.27
2023-12-09T11:36:50.220Z,95470.16
2023-12-09T11:39:23.831Z,95471.41
2023-12-09T11:41:52.516Z,95469.88
2023-12-09T11:44:20.832Z,95473.88
2023-12-09T11:46:49.070Z,95476.58
2023-12-09T11:49:17.461Z,95474.72
2023-12-09T11:51:46.741Z,95474.48
2023-12-09T11:54:15.232Z,95480.45
2023-12-09T11:56:43.414Z,95481.65
2023-12-09T11:59:11.764Z,95481.23
2023-12-09T12:01:41.905Z,95480.34
2023-12-09T12:04:10.254Z,95481.87
2023-12-09T12:06:39.242Z,95483.55
2023-12-09T12:09:07.589Z,95485.91
2023-12-09T12:11:36.022Z,95487.11
2023-12-09T12:14:05.890Z,95486.79
2023-12-09T12:16:34.181Z,95489.90
2023-12-09T12:19:02.692Z,95488.67
2023-12-09T12:21:31.183Z,95487.09
2023-12-09T12:24:05.492Z,95485.55
2023-12-09T12:26:33.642Z,95482.00
2023-12-09T12:29:02.481Z,95484.98
2023-12-09T12:31:32.814Z,95488.58
2023-12-09T12:34:18.979Z,95484.05
2023-12-09T12:36:52.227Z,95487.23
2023-12-09T12:39:22.192Z,95489.91
2023-12-09T12:41:51.329Z,95493.89
2023-12-09T12:44:19.818Z,95500.34
2023-12-09T12:46:48.015Z,95504.88
2023-12-09T12:49:16.271Z,95511.58
2023-12-09T12:51:45.221Z,95508.61
2023-12-09T12:54:13.940Z,95506.09
2023-12-09T12:56:42.253Z,95502.54
2023-12-09T12:59:10.605Z,95505.75
2023-12-09T13:01:38.944Z,95501.11
2023-12-09T13:04:07.315Z,95502.40
2023-12-09T13:06:35.636Z,95504.58
2023-12-09T13:09:05.865Z,95504.75
2023-12-09T13:11:34.187Z,95507.59
2023-12-09T13:14:02.685Z,95511.33
2023-12-09T13:16:31.084Z,95511.98
2023-12-09T13:18:59.427Z,95512.41
2023-12-09T13:21:27.918Z,95514.67
2023-12-09T13:23:56.221Z,95516.40
2023-12-09T13:26:24.668Z,95513.41
2023-12-09T13:28:53.107Z,95513.23
2023-12-09T13:31:21.398Z,95516.11
2023-12-09T13:33:50.117Z,95517.14
2023-12-09T13:36:18.609Z,95518.56
2023-12-09T13:38:46.938Z,95518.56
2023-12-09T13:41:15.085Z,95519.38
2023-12-09T13:43:43.372Z,95517.87
2023-12-09T13:46:11.787Z,95517.92
2023-12-09T13:48:40.085Z,95517.66
2023-12-09T13:51:11.528Z,95518.44
2023-12-09T13:53:39.942Z,95516.19
2023-12-09T13:56:10.393Z,95512.61
2023-12-09T13:58:39.211Z,95516.27
2023-12-09T14:01:08.184Z,95515.52
2023-12-09T14:03:36.895Z,95511.34
2023-12-09T14:06:08.964Z,95504.34
2023-12-09T14:08:37.479Z,95508.06
2023-12-09T14:11:08.872Z,95512.20
2023-12-09T14:13:37.098Z,95516.00
2023-12-09T14:16:05.884Z,95519.99
2023-12-09T14:18:34.308Z,95516.88
2023-12-09T14:21:02.734Z,95515.00
2023-12-09T14:23:30.906Z,95515.79
2023-12-09T14:25:59.043Z,95513.27
2023-12-09T14:28:27.224Z,95514.09
2023-12-09T14:30:56.270Z,95511.91
2023-12-09T14:33:24.867Z,95508.58
2023-12-09T14:35:53.973Z,95509.13
2023-12-09T14:38:22.356Z,95503.38
2023-12-09T14:40:51.375Z,95506.98
2023-12-09T14:43:20.981Z,95501.27
2023-12-09T14:45:49.319Z,95492.95
2023-12-09T14:48:18.471Z,95489.07
2023-12-09T14:50:46.871Z,95483.52
2023-12-09T14:53:15.551Z,95483.84
2023-12-09T14:55:43.776Z,95486.45
2023-12-09T14:58:12.147Z,95479.48
2023-12-09T15:00:40.535Z,95476.87
2023-12-09T15:03:08.882Z,95475.70
2023-12-09T15:05:37.697Z,95480.73
2023-12-09T15:08:06.244Z,95485.11
2023-12-09T15:10:34.688Z,95479.94
2023-12-09T15:13:03.757Z,95478.16
2023-12-09T15:15:32.258Z,95472.11
2023-12-09T15:18:00.921Z,95477.05
2023-12-09T15:20:29.211Z,95474.28
2023-12-09T15:22:58.027Z,95476.13
2023-12-09T15:25:26.537Z,95480.86
2023-12-09T15:27:55.043Z,95484.84
2023-12-09T15:30:23.899Z,95483.59
2023-12-09T15:32:52.378Z,95479.75
2023-12-09T15:35:20.565Z,95481.27
2023-12-09T15:37:49.131Z,95482.64
2023-12-09T15:40:17.650Z,95480.70
2023-12-09T15:42:46.190Z,95479.30
2023-12-09T15:45:14.664Z,95478.67
2023-12-09T15:47:42.941Z,95479.10
2023-12-09T15:50:11.278Z,95476.55
2023-12-09T15:52:39.534Z,95477.16
2023-12-09T15:55:08.270Z,95474.73
2023-12-09T15:57:36.925Z,95474.51
2023-12-09T16:00:07.156Z,95469.41
2023-12-09T16:02:35.715Z,95465.19
2023-12-09T16:05:05.197Z,95462.31
2023-12-09T16:07:34.163Z,95463.04
2023-12-09T16:10:02.596Z,95456.78
2023-12-09T16:12:31.176Z,95455.75
2023-12-09T16:15:02.421Z,95459.95
2023-12-09T16:17:32.741Z,95459.78
2023-12-09T16:20:03.465Z,95457.61
2023-12-09T16:22:31.959Z,95457.13
2023-12-09T16:25:00.338Z,95459.70
2023-12-09T16:27:29.339Z,95457.27
2023-12-09T16:29:57.784Z,95461.95
2023-12-09T16:32:26.476Z,95458.56
2023-12-09T16:34:54.989Z,95454.85
2023-12-09T16:37:26.828Z,95454.30
2023-12-09T16:39:55.302Z,95458.30
2023-12-09T16:42:23.703Z,95455.60
2023-12-09T16:44:52.079Z,95452.85
2023-12-09T16:47:21.480Z,95447.27
2023-12-09T16:49:49.952Z,95442.19
2023-12-09T16:52:18.386Z,95440.61
2023-12-09T16:54:46.733Z,95445.25
2023-12-09T16:57:16.530Z,95441.88
2023-12-09T16:59:44.914Z,95442.58
2023-12-09T17:02:13.289Z,95440.20
2023-12-09T17:04:41.744Z,95437.83
2023-12-09T17:07:10.589Z,95437.29
2023-12-09T17:09:38.793Z,95437.37
2023-12-09T17:12:08.079Z,95441.13
2023-12-09T17:14:37.225Z,95439.13
2023-12-09T17:17:05.694Z,95434.98
2023-12-09T17:19:34.045Z,95435.14
2023-12-09T17:22:02.628Z,95438.77
2023-12-09T17:24:31.915Z,95439.27
2023-12-09T17:27:00.382Z,95435.65
2023-12-09T17:29:28.724Z,95425.14
2023-12-09T17:31:57.028Z,95421.48
2023-12-09T17:34:25.717Z,95420.13
2023-12-09T17:36:54.166Z,95421.16
2023-12-09T17:39:22.484Z,95420.32
2023-12-09T17:41:50.679Z,95420.73
2023-12-09T17:44:19.015Z,95417.80
2023-12-09T17:46:47.288Z,95413.25
2023-12-09T17:49:16.186Z,95415.11
2023-12-09T17:51:44.589Z,95416.72
2023-12-09T17:54:13.150Z,95413.09
2023-12-09T17:56:41.540Z,95414.98
2023-12-09T17:59:09.834Z,95415.14
2023-12-09T18:01:38.127Z,95414.45
2023-12-09T18:04:06.472Z,95415.89
2023-12-09T18:06:35.100Z,95413.58
2023-12-09T18:09:04.020Z,95410.41
2023-12-09T18:11:33.012Z,95408.90
2023-12-09T18:14:02.996Z,95409.11
2023-12-09T18:16:31.785Z,95409.49
2023-12-09T18:19:01.004Z,95406.00
2023-12-09T18:21:29.330Z,95400.52
2023-12-09T18:23:57.828Z,95396.87
2023-12-09T18:26:26.283Z,95407.65
2023-12-09T18:28:54.741Z,95403.59
2023-12-09T18:31:23.405Z,95400.75
2023-12-09T18:33:51.834Z,95398.06
2023-12-09T18:36:21.535Z,95396.17
2023-12-09T18:38:49.750Z,95390.68
2023-12-09T18:41:17.920Z,95381.06
2023-12-09T18:43:46.175Z,95371.70
2023-12-09T18:46:14.735Z,95364.09
2023-12-09T18:48:43.077Z,95363.83
2023-12-09T18:51:13.958Z,95362.27
2023-12-09T18:53:43.829Z,95354.17
2023-12-09T18:56:12.845Z,95351.27
2023-12-09T18:58:41.489Z,95347.35
2023-12-09T19:01:11.508Z,95345.18
2023-12-09T19:03:40.771Z,95340.03
2023-12-09T19:06:10.754Z,95342.68
2023-12-09T19:08:39.344Z,95338.21
2023-12-09T19:11:08.018Z,95338.33
2023-12-09T19:13:36.508Z,95330.74
2023-12-09T19:16:08.169Z,95328.38
2023-12-09T19:18:39.033Z,95327.00
2023-12-09T19:21:07.730Z,95328.42
2023-12-09T19:23:36.466Z,95325.73
2023-12-09T19:26:10.542Z,95322.73
2023-12-09T19:28:38.877Z,95322.05
2023-12-09T19:31:07.276Z,95315.04
2023-12-09T19:33:37.128Z,95315.03
2023-12-09T19:36:06.978Z,95317.00
2023-12-09T19:38:35.369Z,95311.37
2023-12-09T19:41:04.535Z,95309.56
2023-12-09T19:43:32.844Z,95304.10
2023-12-09T19:46:01.136Z,95309.73
2023-12-09T19:48:29.570Z,95306.41
2023-12-09T19:50:57.899Z,95304.68
2023-12-09T19:53:26.518Z,95305.54
2023-12-09T19:55:56.659Z,95307.38
2023-12-09T19:58:24.914Z,95300.67
2023-12-09T20:00:53.296Z,95302.80
2023-12-09T20:03:22.404Z,95301.21
2023-12-09T20:05:53.614Z,95298.52
2023-12-09T20:08:24.863Z,95298.23
2023-12-09T20:10:52.986Z,95293.24
2023-12-09T20:13:21.864Z,95296.31
2023-12-09T20:15:50.158Z,95293.17
2023-12-09T20:18:20.248Z,95288.40
2023-12-09T20:20:49.813Z,95283.45
2023-12-09T20:23:18.146Z,95277.88
2023-12-09T20:25:46.445Z,95277.89
2023-12-09T20:28:15.232Z,95277.45
2023-12-09T20:30:43.734Z,95286.52
2023-12-09T20:33:12.174Z,95292.16
2023-12-09T20:35:42.609Z,95292.77
2023-12-09T20:38:11.070Z,95292.34
2023-12-09T20:40:39.639Z,95289.37
2023-12-09T20:43:07.961Z,95281.45
2023-12-09T20:45:38.400Z,95276.27
2023-12-09T20:48:08.061Z,95275.91
2023-12-09T20:50:37.376Z,95278.13
2023-12-09T20:53:07.682Z,95276.66
2023-12-09T20:55:36.425Z,95271.77
2023-12-09T20:58:05.763Z,95265.11
2023-12-09T21:00:34.213Z,95261.20
2023-12-09T21:03:04.439Z,95264.43
2023-12-09T21:05:32.764Z,95261.21
2023-12-09T21:08:00.991Z,95257.92
2023-12-09T21:10:29.360Z,95259.17
2023-12-09T21:12:59.341Z,95262.77
2023-12-09T21:15:27.827Z,95260.93
2023-12-09T21:17:59.478Z,95266.22
2023-12-09T21:20:28.981Z,95272.08
2023-12-09T21:23:00.223Z,95270.98
2023-12-09T21:25:28.530Z,95260.40
2023-12-09T21:27:56.948Z,95254.73
2023-12-09T21:30:25.236Z,95253.52
2023-12-09T21:32:53.599Z,95249.74
2023-12-09T21:35:23.359Z,95243.87
2023-12-09T21:37:53.541Z,95250.45
2023-12-09T21:40:21.821Z,95253.15
2023-12-09T21:42:50.893Z,95247.98
2023-12-09T21:45:19.326Z,95233.65
2023-12-09T21:47:49.862Z,95230.92
2023-12-09T21:50:20.377Z,95236.78
2023-12-09T21:52:48.881Z,95231.96
2023-12-09T21:55:17.176Z,95221.53
2023-12-09T21:57:45.605Z,95217.63
2023-12-09T22:00:14.474Z,95218.48
2023-12-09T22:02:43.022Z,95220.84
2023-12-09T22:05:11.560Z,95221.94
2023-12-09T22:07:39.847Z,95219.17
2023-12-09T22:10:08.499Z,95222.29
2023-12-09T22:12:39.666Z,95218.56
2023-12-09T22:15:09.824Z,95219.89
2023-12-09T22:17:40.265Z,95223.95
2023-12-09T22:20:09.861Z,95221.98
2023-12-09T22:22:44.573Z,95213.71
2023-12-09T22:25:20.023Z,95203.29
2023-12-09T22:27:48.499Z,95199.70
2023-12-09T22:30:17.314Z,95200.11
2023-12-09T22:32:45.780Z,95200.92
2023-12-09T22:35:14.070Z,95191.43
2023-12-09T22:37:42.286Z,95186.04
2023-12-09T22:40:11.381Z,95187.99
2023-12-09T22:42:39.879Z,95191.88
2023-12-09T22:45:09.704Z,95192.39
2023-12-09T22:47:38.185Z,95194.75
2023-12-09T22:50:07.442Z,95195.02
2023-12-09T22:52:35.782Z,95186.54
2023-12-09T22:55:04.345Z,95178.97
2023-12-09T22:57:32.722Z,95180.67
2023-12-09T23:00:00.978Z,95179.67
2023-12-09T23:02:29.874Z,95176.23
2023-12-09T23:04:58.263Z,95178.92
2023-12-09T23:07:26.505Z,95180.20
2023-12-09T23:09:55.363Z,95178.63
2023-12-09T23:12:23.682Z,95177.45
2023-12-09T23:14:51.997Z,95170.66
2023-12-09T23:17:20.130Z,95171.17
2023-12-09T23:19:48.421Z,95171.45
2023-12-09T23:22:17.149Z,95167.69
2023-12-09T23:24:45.448Z,95162.02
2023-12-09T23:27:13.788Z,95150.55
2023-12-09T23:29:42.314Z,95154.10
2023-12-09T23:32:10.572Z,95156.35
2023-12-09T23:34:39.029Z,95155.29
2023-12-09T23:37:07.534Z,95155.19
2023-12-09T23:39:38.231Z,95154.74
2023-12-09T23:42:06.781Z,95150.72
2023-12-09T23:44:35.509Z,95137.65
2023-12-09T23:47:03.957Z,95132.14
2023-12-09T23:49:32.266Z,95127.60
2023-12-09T23:52:00.608Z,95124.55
2023-12-09T23:54:30.705Z,95118.35
2023-12-09T23:56:59.020Z,95114.69
2023-12-09T23:59:27.258Z,95115.01
